createdAt,value
2019-03-26T00:02:59.941Z,6.20
2019-03-26T00:08:03.596Z,6.20
2019-03-26T00:13:07.325Z,6.30
2019-03-26T00:18:11.380Z,6.40
2019-03-26T00:23:15.407Z,6.40
2019-03-26T00:28:19.007Z,6.60
2019-03-26T00:33:35.391Z,6.50
2019-03-26T00:38:27.962Z,6.60
2019-03-26T00:43:31.541Z,6.60
2019-03-26T00:48:35.184Z,6.50
2019-03-26T00:53:39.158Z,6.50
2019-03-26T00:58:42.767Z,6.60
2019-03-26T01:03:46.495Z,6.40
2019-03-26T01:08:50.229Z,6.40
2019-03-26T01:13:53.911Z,6.40
2019-03-26T01:18:57.588Z,6.40
2019-03-26T01:24:01.314Z,6.40
2019-03-26T01:29:05.334Z,6.50
2019-03-26T01:34:08.916Z,6.50
2019-03-26T01:39:12.514Z,6.50
2019-03-26T01:44:16.134Z,6.60
2019-03-26T01:49:19.881Z,6.50
2019-03-26T01:54:23.472Z,6.50
2019-03-26T01:59:27.250Z,6.50
2019-03-26T02:04:31.294Z,6.60
2019-03-26T02:09:34.958Z,6.60
2019-03-26T02:14:38.545Z,6.60
2019-03-26T02:19:42.134Z,6.30
2019-03-26T02:24:45.762Z,6.30
2019-03-26T02:29:49.351Z,6.30
2019-03-26T02:34:52.945Z,6.40
2019-03-26T02:39:56.536Z,6.40
2019-03-26T02:45:00.265Z,6.40
2019-03-26T02:50:06.977Z,6.50
2019-03-26T02:55:10.705Z,6.40
2019-03-26T03:00:14.664Z,6.30
2019-03-26T03:05:34.289Z,6.20
2019-03-26T03:10:23.900Z,6.10
2019-03-26T03:15:27.635Z,6.10
2019-03-26T03:20:31.354Z,6.20
2019-03-26T03:25:35.425Z,6.20
2019-03-26T03:30:39.091Z,6.20
2019-03-26T03:35:51.851Z,6.30
2019-03-26T03:40:47.941Z,6.30
2019-03-26T03:45:53.546Z,6.20
2019-03-26T03:50:58.747Z,6.00
2019-03-26T03:56:03.979Z,6.00
2019-03-26T04:01:08.052Z,6.10
2019-03-26T04:06:11.718Z,6.20
2019-03-26T04:11:15.296Z,6.30
2019-03-26T04:16:18.878Z,6.30
2019-03-26T04:21:22.471Z,6.30
2019-03-26T04:26:26.558Z,6.20
2019-03-26T04:31:30.234Z,6.20
2019-03-26T04:36:33.914Z,6.20
2019-03-26T04:41:37.593Z,6.30
2019-03-26T04:46:41.267Z,6.30
2019-03-26T04:51:44.857Z,6.30
2019-03-26T04:56:48.446Z,6.40
2019-03-26T05:01:52.108Z,6.30
2019-03-26T05:06:56.033Z,6.30
2019-03-26T05:11:59.627Z,6.30
2019-03-26T05:17:03.234Z,6.30
2019-03-26T05:22:06.894Z,6.30
2019-03-26T05:27:10.931Z,6.30
2019-03-26T05:32:14.535Z,6.30
2019-03-26T05:37:18.122Z,6.20
2019-03-26T05:42:21.714Z,6.30
2019-03-26T05:47:25.384Z,6.20
2019-03-26T05:52:29.038Z,6.30
2019-03-26T05:57:32.629Z,6.40
2019-03-26T06:02:36.633Z,6.40
2019-03-26T06:07:40.280Z,6.50
2019-03-26T06:12:44.274Z,6.60
2019-03-26T06:17:47.926Z,6.60
2019-03-26T06:22:51.585Z,6.70
2019-03-26T06:27:55.250Z,6.70
2019-03-26T06:32:58.912Z,6.80
2019-03-26T06:38:02.521Z,6.80
2019-03-26T06:43:06.534Z,6.80
2019-03-26T06:48:10.134Z,6.80
2019-03-26T06:53:14.077Z,7.00
2019-03-26T06:58:17.682Z,7.20
2019-03-26T07:03:21.434Z,7.30
2019-03-26T07:08:25.462Z,7.30
2019-03-26T07:13:29.121Z,7.10
2019-03-26T07:18:32.809Z,7.20
2019-03-26T07:23:36.486Z,7.30
2019-03-26T07:28:40.080Z,7.40
2019-03-26T07:33:43.824Z,7.40
2019-03-26T07:38:47.487Z,7.40
2019-03-26T07:43:51.161Z,7.60
2019-03-26T07:48:54.742Z,7.70
2019-03-26T07:53:58.473Z,7.70
2019-03-26T07:59:02.164Z,8.00
2019-03-26T08:04:06.222Z,7.90
2019-03-26T08:09:10.262Z,8.10
2019-03-26T08:14:14.180Z,8.20
2019-03-26T08:19:17.746Z,8.00
2019-03-26T08:24:21.733Z,7.90
2019-03-26T08:29:25.335Z,8.00
2019-03-26T08:34:28.927Z,8.10
2019-03-26T08:39:32.910Z,8.20
2019-03-26T08:44:36.503Z,8.30
2019-03-26T08:49:40.461Z,8.40
2019-03-26T08:54:44.049Z,8.50
2019-03-26T08:59:47.656Z,8.60
2019-03-26T09:04:51.685Z,9.00
2019-03-26T09:09:55.339Z,9.00
2019-03-26T09:14:59.011Z,8.80
2019-03-26T09:20:02.673Z,8.80
2019-03-26T09:25:07.617Z,8.70
2019-03-26T09:30:12.445Z,8.60
2019-03-26T09:35:16.186Z,8.90
2019-03-26T09:40:19.781Z,9.20
2019-03-26T09:45:23.444Z,9.30
2019-03-26T09:50:34.878Z,9.40
2019-03-26T09:55:38.858Z,9.50
2019-03-26T10:00:42.837Z,9.60
2019-03-26T10:05:46.747Z,9.80
2019-03-26T10:10:50.851Z,10.10
2019-03-26T10:15:54.997Z,10.30
2019-03-26T10:20:58.943Z,10.40
2019-03-26T10:26:02.881Z,10.50
2019-03-26T10:31:06.548Z,10.70
2019-03-26T10:36:10.604Z,11.10
2019-03-26T10:41:14.268Z,11.10
2019-03-26T10:46:17.870Z,11.10
2019-03-26T10:51:21.808Z,11.10
2019-03-26T10:56:25.480Z,11.00
2019-03-26T11:01:29.073Z,11.10
2019-03-26T11:06:32.755Z,11.20
2019-03-26T11:11:36.430Z,11.30
2019-03-26T11:16:40.040Z,11.40
2019-03-26T11:21:43.701Z,11.60
2019-03-26T11:26:47.327Z,12.70
2019-03-26T11:31:51.401Z,13.20
2019-03-26T11:36:55.402Z,13.00
2019-03-26T11:41:59.129Z,12.70
2019-03-26T11:47:03.291Z,12.30
2019-03-26T11:52:07.055Z,12.10
2019-03-26T11:57:10.720Z,11.80
2019-03-26T12:02:14.415Z,11.90
2019-03-26T12:07:17.985Z,12.20
2019-03-26T12:12:21.579Z,13.20
2019-03-26T12:17:25.246Z,15.60
2019-03-26T12:22:31.333Z,16.40
2019-03-26T12:27:36.547Z,15.90
2019-03-26T12:32:41.096Z,14.80
2019-03-26T12:37:45.075Z,14.20
2019-03-26T12:42:48.671Z,14.10
2019-03-26T12:47:52.266Z,13.60
2019-03-26T12:52:56.225Z,13.30
2019-03-26T12:57:59.809Z,14.40
2019-03-26T13:03:03.477Z,15.50
2019-03-26T13:08:07.149Z,15.30
2019-03-26T13:13:10.813Z,16.30
2019-03-26T13:18:14.829Z,16.00
2019-03-26T13:23:18.475Z,15.50
2019-03-26T13:28:22.061Z,15.00
2019-03-26T13:33:25.651Z,15.10
2019-03-26T13:38:29.273Z,15.70
2019-03-26T13:43:35.699Z,16.60
2019-03-26T13:48:39.343Z,17.90
2019-03-26T13:53:43.324Z,17.60
2019-03-26T13:58:46.988Z,17.90
2019-03-26T14:03:50.650Z,17.70
2019-03-26T14:08:54.314Z,17.60
2019-03-26T14:13:58.327Z,18.10
2019-03-26T14:19:01.996Z,18.30
2019-03-26T14:24:05.725Z,17.30
2019-03-26T14:29:09.594Z,16.40
2019-03-26T14:34:13.341Z,15.90
2019-03-26T14:39:17.012Z,15.00
2019-03-26T14:44:20.777Z,14.30
2019-03-26T14:49:24.483Z,14.70
2019-03-26T14:54:28.430Z,15.60
2019-03-26T14:59:32.602Z,16.20
2019-03-26T15:04:36.212Z,16.20
2019-03-26T15:09:40.254Z,15.60
2019-03-26T15:14:44.253Z,15.70
2019-03-26T15:19:47.921Z,15.40
2019-03-26T15:24:51.528Z,15.40
2019-03-26T15:29:55.458Z,15.70
2019-03-26T15:34:59.387Z,15.50
2019-03-26T15:40:03.436Z,15.10
2019-03-26T15:45:08.253Z,14.80
2019-03-26T15:50:13.365Z,14.90
2019-03-26T15:55:17.042Z,15.10
2019-03-26T16:00:24.157Z,14.90
2019-03-26T16:05:27.887Z,14.60
2019-03-26T16:10:32.662Z,14.40
2019-03-26T16:15:44.215Z,14.00
2019-03-26T16:20:41.908Z,14.10
2019-03-26T16:25:46.627Z,13.90
2019-03-26T16:30:53.896Z,13.60
2019-03-26T16:35:57.757Z,13.60
2019-03-26T16:41:01.363Z,13.60
2019-03-26T16:46:05.471Z,13.50
2019-03-26T16:51:09.069Z,13.40
2019-03-26T16:56:12.661Z,13.00
2019-03-26T17:01:16.271Z,12.70
2019-03-26T17:06:20.260Z,12.60
2019-03-26T17:11:24.356Z,12.50
2019-03-26T17:16:27.942Z,12.30
2019-03-26T17:21:31.936Z,12.00
2019-03-26T17:26:35.864Z,11.80
2019-03-26T17:31:39.602Z,11.60
2019-03-26T17:36:43.584Z,11.40
2019-03-26T17:41:47.275Z,10.90
2019-03-26T17:46:51.271Z,10.70
2019-03-26T17:51:55.196Z,10.70
2019-03-26T17:56:58.798Z,10.50
2019-03-26T18:02:02.499Z,10.40
2019-03-26T18:07:06.159Z,10.30
2019-03-26T18:12:09.822Z,10.30
2019-03-26T18:17:13.428Z,10.20
2019-03-26T18:22:17.456Z,10.00
2019-03-26T18:27:21.474Z,9.80
2019-03-26T18:32:25.165Z,9.70
2019-03-26T18:37:28.770Z,9.30
2019-03-26T18:42:43.355Z,9.00
2019-03-26T18:47:38.021Z,8.30
2019-03-26T18:52:43.915Z,7.70
2019-03-26T18:57:49.157Z,7.40
2019-03-26T19:02:52.910Z,7.30
2019-03-26T19:07:56.873Z,6.90
2019-03-26T19:13:00.674Z,6.80
2019-03-26T19:18:04.553Z,6.70
2019-03-26T19:23:08.657Z,6.50
2019-03-26T19:28:12.345Z,6.30
2019-03-26T19:33:16.344Z,6.10
2019-03-26T19:38:20.022Z,6.10
2019-03-26T19:43:23.778Z,6.20
2019-03-26T19:48:27.420Z,6.20
2019-03-26T19:53:31.034Z,6.20
2019-03-26T19:58:34.622Z,6.10
2019-03-26T20:03:38.350Z,6.00
2019-03-26T20:08:41.969Z,6.20
2019-03-26T20:13:45.551Z,6.50
2019-03-26T20:18:49.144Z,6.60
2019-03-26T20:23:53.090Z,6.70
2019-03-26T20:28:56.742Z,6.60
2019-03-26T20:34:00.342Z,6.50
2019-03-26T20:39:06.295Z,6.20
2019-03-26T20:44:10.322Z,6.20
2019-03-26T20:49:14.715Z,6.10
2019-03-26T20:54:18.351Z,6.10
2019-03-26T20:59:22.110Z,6.00
2019-03-26T21:04:25.943Z,6.00
2019-03-26T21:09:29.862Z,6.00
2019-03-26T21:14:34.020Z,6.00
2019-03-26T21:19:37.807Z,6.00
2019-03-26T21:24:41.787Z,6.00
2019-03-26T21:29:46.653Z,5.90
2019-03-26T21:34:56.647Z,5.90
2019-03-26T21:40:00.928Z,5.70
2019-03-26T21:45:07.245Z,5.70
2019-03-26T21:50:14.320Z,5.50
2019-03-26T21:55:18.014Z,5.40
2019-03-26T22:00:22.488Z,5.50
2019-03-26T22:05:26.134Z,5.40
2019-03-26T22:10:29.806Z,5.50
2019-03-26T22:15:33.583Z,5.40
2019-03-26T22:20:37.350Z,5.40
2019-03-26T22:25:40.953Z,5.30
2019-03-26T22:30:44.610Z,5.10
2019-03-26T22:35:48.221Z,4.90
2019-03-26T22:40:51.829Z,4.80
2019-03-26T22:45:55.501Z,4.60
2019-03-26T22:50:59.419Z,4.50
2019-03-26T22:56:03.006Z,4.60
2019-03-26T23:01:06.915Z,4.80
2019-03-26T23:06:10.650Z,4.50
2019-03-26T23:11:14.305Z,4.60
2019-03-26T23:16:17.921Z,4.70
2019-03-26T23:21:21.884Z,4.70
2019-03-26T23:26:25.477Z,4.50
2019-03-26T23:31:29.189Z,4.50
2019-03-26T23:36:33.169Z,4.40
2019-03-26T23:41:39.554Z,4.30
2019-03-26T23:46:42.766Z,4.30
2019-03-26T23:51:46.678Z,4.30
2019-03-26T23:56:50.333Z,4.30
